sensor_id;sensor_type;location;lat;lon;timestamp;P1;durP1;ratioP1;P2;durP2;ratioP2
64197;SDS011;50512;53.666;9.700;2023-08-30T00:01:29;12.45;;;5.30;;
64197;SDS011;50512;53.666;9.700;2023-08-30T00:03:55;15.65;;;5.88;;
64197;SDS011;50512;53.666;9.700;2023-08-30T00:06:22;14.80;;;5.47;;
64197;SDS011;50512;53.666;9.700;2023-08-30T00:08:50;11.63;;;4.43;;
64197;SDS011;50512;53.666;9.700;2023-08-30T00:11:16;13.95;;;5.20;;
64197;SDS011;50512;53.666;9.700;2023-08-30T00:13:43;14.20;;;4.43;;
64197;SDS011;50512;53.666;9.700;2023-08-30T00:16:09;15.43;;;5.32;;
64197;SDS011;50512;53.666;9.700;2023-08-30T00:18:37;14.00;;;5.65;;
64197;SDS011;50512;53.666;9.700;2023-08-30T00:21:04;13.85;;;5.95;;
64197;SDS011;50512;53.666;9.700;2023-08-30T00:23:31;13.32;;;5.03;;
64197;SDS011;50512;53.666;9.700;2023-08-30T00:25:59;11.10;;;4.50;;
64197;SDS011;50512;53.666;9.700;2023-08-30T00:28:26;14.88;;;5.43;;
64197;SDS011;50512;53.666;9.700;2023-08-30T00:30:52;15.25;;;6.20;;
64197;SDS011;50512;53.666;9.700;2023-08-30T00:33:19;17.58;;;6.05;;
64197;SDS011;50512;53.666;9.700;2023-08-30T00:35:46;11.20;;;4.57;;
64197;SDS011;50512;53.666;9.700;2023-08-30T00:38:12;13.85;;;5.20;;
64197;SDS011;50512;53.666;9.700;2023-08-30T00:40:39;10.50;;;4.03;;
64197;SDS011;50512;53.666;9.700;2023-08-30T00:43:07;12.23;;;4.55;;
64197;SDS011;50512;53.666;9.700;2023-08-30T00:45:34;10.85;;;4.47;;
64197;SDS011;50512;53.666;9.700;2023-08-30T00:48:04;14.65;;;5.80;;
64197;SDS011;50512;53.666;9.700;2023-08-30T00:50:31;11.55;;;4.55;;
64197;SDS011;50512;53.666;9.700;2023-08-30T00:52:58;13.82;;;5.55;;
64197;SDS011;50512;53.666;9.700;2023-08-30T00:55:24;15.95;;;5.28;;
64197;SDS011;50512;53.666;9.700;2023-08-30T00:57:51;14.65;;;6.03;;
64197;SDS011;50512;53.666;9.700;2023-08-30T01:00:18;15.98;;;6.25;;
64197;SDS011;50512;53.666;9.700;2023-08-30T01:02:46;14.77;;;5.63;;
64197;SDS011;50512;53.666;9.700;2023-08-30T01:05:12;15.77;;;5.50;;
64197;SDS011;50512;53.666;9.700;2023-08-30T01:07:39;15.15;;;5.65;;
64197;SDS011;50512;53.666;9.700;2023-08-30T01:10:06;16.15;;;6.00;;
64197;SDS011;50512;53.666;9.700;2023-08-30T01:12:36;16.00;;;6.13;;
64197;SDS011;50512;53.666;9.700;2023-08-30T01:15:06;15.25;;;6.03;;
64197;SDS011;50512;53.666;9.700;2023-08-30T01:17:37;15.00;;;5.90;;
64197;SDS011;50512;53.666;9.700;2023-08-30T01:20:08;15.05;;;6.20;;
64197;SDS011;50512;53.666;9.700;2023-08-30T01:22:40;16.35;;;5.75;;
64197;SDS011;50512;53.666;9.700;2023-08-30T01:25:16;16.52;;;5.70;;
64197;SDS011;50512;53.666;9.700;2023-08-30T01:27:52;13.38;;;5.30;;
64197;SDS011;50512;53.666;9.700;2023-08-30T01:30:20;15.80;;;5.97;;
64197;SDS011;50512;53.666;9.700;2023-08-30T01:32:48;13.48;;;5.28;;
64197;SDS011;50512;53.666;9.700;2023-08-30T01:35:16;19.33;;;6.90;;
64197;SDS011;50512;53.666;9.700;2023-08-30T01:37:44;16.15;;;6.50;;
64197;SDS011;50512;53.666;9.700;2023-08-30T01:40:12;19.48;;;6.38;;
64197;SDS011;50512;53.666;9.700;2023-08-30T01:42:40;14.00;;;5.93;;
64197;SDS011;50512;53.666;9.700;2023-08-30T01:45:11;16.70;;;5.53;;
64197;SDS011;50512;53.666;9.700;2023-08-30T01:47:39;17.73;;;6.63;;
64197;SDS011;50512;53.666;9.700;2023-08-30T01:50:08;16.15;;;7.10;;
64197;SDS011;50512;53.666;9.700;2023-08-30T01:52:36;17.70;;;6.45;;
64197;SDS011;50512;53.666;9.700;2023-08-30T01:55:03;17.73;;;7.20;;
64197;SDS011;50512;53.666;9.700;2023-08-30T01:57:31;18.35;;;7.30;;
64197;SDS011;50512;53.666;9.700;2023-08-30T01:59:58;23.67;;;8.25;;
64197;SDS011;50512;53.666;9.700;2023-08-30T02:02:29;21.52;;;7.90;;
64197;SDS011;50512;53.666;9.700;2023-08-30T02:04:56;23.75;;;8.43;;
64197;SDS011;50512;53.666;9.700;2023-08-30T02:07:26;17.38;;;7.20;;
64197;SDS011;50512;53.666;9.700;2023-08-30T02:09:57;11.93;;;5.68;;
64197;SDS011;50512;53.666;9.700;2023-08-30T02:12:25;12.13;;;4.72;;
64197;SDS011;50512;53.666;9.700;2023-08-30T02:14:57;17.63;;;6.57;;
64197;SDS011;50512;53.666;9.700;2023-08-30T02:17:24;20.83;;;8.07;;
64197;SDS011;50512;53.666;9.700;2023-08-30T02:19:52;25.08;;;7.85;;
64197;SDS011;50512;53.666;9.700;2023-08-30T02:22:19;29.27;;;8.10;;
64197;SDS011;50512;53.666;9.700;2023-08-30T02:24:45;24.55;;;9.02;;
64197;SDS011;50512;53.666;9.700;2023-08-30T02:27:12;29.35;;;9.82;;
64197;SDS011;50512;53.666;9.700;2023-08-30T02:29:38;25.30;;;9.10;;
64197;SDS011;50512;53.666;9.700;2023-08-30T02:32:05;26.42;;;8.55;;
64197;SDS011;50512;53.666;9.700;2023-08-30T02:34:32;30.42;;;10.98;;
64197;SDS011;50512;53.666;9.700;2023-08-30T02:37:02;30.98;;;11.75;;
64197;SDS011;50512;53.666;9.700;2023-08-30T02:39:28;26.92;;;11.48;;
64197;SDS011;50512;53.666;9.700;2023-08-30T02:41:54;49.30;;;16.55;;
64197;SDS011;50512;53.666;9.700;2023-08-30T02:44:21;34.00;;;11.30;;
64197;SDS011;50512;53.666;9.700;2023-08-30T02:46:47;35.80;;;13.45;;
64197;SDS011;50512;53.666;9.700;2023-08-30T02:49:14;31.73;;;10.23;;
64197;SDS011;50512;53.666;9.700;2023-08-30T02:51:40;23.35;;;8.05;;
64197;SDS011;50512;53.666;9.700;2023-08-30T02:54:08;21.60;;;8.80;;
64197;SDS011;50512;53.666;9.700;2023-08-30T02:56:37;24.65;;;9.02;;
64197;SDS011;50512;53.666;9.700;2023-08-30T02:59:03;29.08;;;10.93;;
64197;SDS011;50512;53.666;9.700;2023-08-30T03:01:30;28.92;;;9.73;;
64197;SDS011;50512;53.666;9.700;2023-08-30T03:03:56;37.13;;;13.82;;
64197;SDS011;50512;53.666;9.700;2023-08-30T03:06:23;36.13;;;13.65;;
64197;SDS011;50512;53.666;9.700;2023-08-30T03:08:49;48.70;;;14.98;;
64197;SDS011;50512;53.666;9.700;2023-08-30T03:11:17;41.05;;;13.77;;
64197;SDS011;50512;53.666;9.700;2023-08-30T03:13:43;43.03;;;15.05;;
64197;SDS011;50512;53.666;9.700;2023-08-30T03:16:10;54.63;;;18.55;;
64197;SDS011;50512;53.666;9.700;2023-08-30T03:18:37;46.80;;;15.93;;
64197;SDS011;50512;53.666;9.700;2023-08-30T03:21:04;48.10;;;16.52;;
64197;SDS011;50512;53.666;9.700;2023-08-30T03:23:32;48.03;;;18.10;;
64197;SDS011;50512;53.666;9.700;2023-08-30T03:26:06;53.15;;;18.67;;
64197;SDS011;50512;53.666;9.700;2023-08-30T03:28:35;47.33;;;17.25;;
64197;SDS011;50512;53.666;9.700;2023-08-30T03:31:01;47.05;;;16.65;;
64197;SDS011;50512;53.666;9.700;2023-08-30T03:33:28;51.47;;;17.33;;
64197;SDS011;50512;53.666;9.700;2023-08-30T03:35:57;52.58;;;19.38;;
64197;SDS011;50512;53.666;9.700;2023-08-30T03:38:24;62.60;;;19.58;;
64197;SDS011;50512;53.666;9.700;2023-08-30T03:40:52;63.03;;;22.05;;
64197;SDS011;50512;53.666;9.700;2023-08-30T03:43:19;58.72;;;21.15;;
64197;SDS011;50512;53.666;9.700;2023-08-30T03:45:47;61.78;;;20.30;;
64197;SDS011;50512;53.666;9.700;2023-08-30T03:48:14;66.40;;;22.58;;
64197;SDS011;50512;53.666;9.700;2023-08-30T03:50:40;66.10;;;23.33;;
64197;SDS011;50512;53.666;9.700;2023-08-30T03:53:07;67.93;;;23.52;;
64197;SDS011;50512;53.666;9.700;2023-08-30T03:55:33;80.25;;;27.80;;
64197;SDS011;50512;53.666;9.700;2023-08-30T03:58:00;74.68;;;24.95;;
64197;SDS011;50512;53.666;9.700;2023-08-30T04:00:26;69.75;;;23.67;;
64197;SDS011;50512;53.666;9.700;2023-08-30T04:02:54;78.03;;;26.25;;
64197;SDS011;50512;53.666;9.700;2023-08-30T04:05:21;75.65;;;26.30;;
64197;SDS011;50512;53.666;9.700;2023-08-30T04:07:47;81.25;;;26.35;;
64197;SDS011;50512;53.666;9.700;2023-08-30T04:10:13;80.78;;;26.30;;
64197;SDS011;50512;53.666;9.700;2023-08-30T04:12:40;81.80;;;26.13;;
64197;SDS011;50512;53.666;9.700;2023-08-30T04:15:07;76.80;;;25.58;;
64197;SDS011;50512;53.666;9.700;2023-08-30T04:17:34;77.72;;;25.33;;
64197;SDS011;50512;53.666;9.700;2023-08-30T04:20:02;81.45;;;26.55;;
64197;SDS011;50512;53.666;9.700;2023-08-30T04:22:29;74.70;;;26.83;;
64197;SDS011;50512;53.666;9.700;2023-08-30T04:24:55;80.82;;;25.30;;
64197;SDS011;50512;53.666;9.700;2023-08-30T04:27:22;66.07;;;23.75;;
64197;SDS011;50512;53.666;9.700;2023-08-30T04:29:48;64.85;;;24.13;;
64197;SDS011;50512;53.666;9.700;2023-08-30T04:32:15;67.28;;;24.52;;
64197;SDS011;50512;53.666;9.700;2023-08-30T04:34:41;66.82;;;23.95;;
64197;SDS011;50512;53.666;9.700;2023-08-30T04:37:09;59.88;;;22.38;;
64197;SDS011;50512;53.666;9.700;2023-08-30T04:39:35;63.20;;;22.73;;
64197;SDS011;50512;53.666;9.700;2023-08-30T04:42:02;61.25;;;24.02;;
64197;SDS011;50512;53.666;9.700;2023-08-30T04:44:28;57.97;;;22.42;;
64197;SDS011;50512;53.666;9.700;2023-08-30T04:46:57;54.70;;;21.40;;
64197;SDS011;50512;53.666;9.700;2023-08-30T04:49:23;65.07;;;23.50;;
64197;SDS011;50512;53.666;9.700;2023-08-30T04:51:50;54.83;;;21.20;;
64197;SDS011;50512;53.666;9.700;2023-08-30T04:54:18;61.13;;;20.80;;
64197;SDS011;50512;53.666;9.700;2023-08-30T04:56:45;57.17;;;21.60;;
64197;SDS011;50512;53.666;9.700;2023-08-30T04:59:11;57.40;;;21.42;;
64197;SDS011;50512;53.666;9.700;2023-08-30T05:01:38;55.42;;;20.90;;
64197;SDS011;50512;53.666;9.700;2023-08-30T05:04:07;56.65;;;21.98;;
64197;SDS011;50512;53.666;9.700;2023-08-30T05:06:33;53.65;;;20.10;;
64197;SDS011;50512;53.666;9.700;2023-08-30T05:09:00;54.53;;;21.42;;
64197;SDS011;50512;53.666;9.700;2023-08-30T05:11:27;54.15;;;20.83;;
64197;SDS011;50512;53.666;9.700;2023-08-30T05:13:54;55.72;;;21.15;;
64197;SDS011;50512;53.666;9.700;2023-08-30T05:16:21;54.10;;;20.58;;
64197;SDS011;50512;53.666;9.700;2023-08-30T05:18:47;48.35;;;18.13;;
64197;SDS011;50512;53.666;9.700;2023-08-30T05:21:14;47.28;;;19.27;;
64197;SDS011;50512;53.666;9.700;2023-08-30T05:23:40;43.33;;;19.48;;
64197;SDS011;50512;53.666;9.700;2023-08-30T05:26:07;42.88;;;19.45;;
64197;SDS011;50512;53.666;9.700;2023-08-30T05:28:35;46.67;;;19.48;;
64197;SDS011;50512;53.666;9.700;2023-08-30T05:31:02;44.67;;;18.33;;
64197;SDS011;50512;53.666;9.700;2023-08-30T05:33:28;43.67;;;19.90;;
64197;SDS011;50512;53.666;9.700;2023-08-30T05:35:55;45.05;;;20.20;;
64197;SDS011;50512;53.666;9.700;2023-08-30T05:38:21;48.28;;;19.35;;
64197;SDS011;50512;53.666;9.700;2023-08-30T05:40:48;44.42;;;17.60;;
64197;SDS011;50512;53.666;9.700;2023-08-30T05:43:14;45.63;;;18.83;;
64197;SDS011;50512;53.666;9.700;2023-08-30T05:45:42;50.78;;;19.98;;
64197;SDS011;50512;53.666;9.700;2023-08-30T05:48:09;46.65;;;19.33;;
64197;SDS011;50512;53.666;9.700;2023-08-30T05:50:35;49.20;;;19.00;;
64197;SDS011;50512;53.666;9.700;2023-08-30T05:53:02;43.15;;;17.60;;
64197;SDS011;50512;53.666;9.700;2023-08-30T05:55:29;43.15;;;19.10;;
64197;SDS011;50512;53.666;9.700;2023-08-30T05:57:55;43.58;;;17.80;;
64197;SDS011;50512;53.666;9.700;2023-08-30T06:00:22;50.63;;;17.63;;
64197;SDS011;50512;53.666;9.700;2023-08-30T06:02:52;42.42;;;17.85;;
64197;SDS011;50512;53.666;9.700;2023-08-30T06:05:18;44.47;;;19.55;;
64197;SDS011;50512;53.666;9.700;2023-08-30T06:07:45;44.30;;;18.20;;
64197;SDS011;50512;53.666;9.700;2023-08-30T06:10:11;40.70;;;17.23;;
64197;SDS011;50512;53.666;9.700;2023-08-30T06:12:38;38.58;;;16.08;;
64197;SDS011;50512;53.666;9.700;2023-08-30T06:15:05;41.47;;;16.60;;
64197;SDS011;50512;53.666;9.700;2023-08-30T06:17:32;43.75;;;19.08;;
64197;SDS011;50512;53.666;9.700;2023-08-30T06:20:00;38.45;;;18.20;;
64197;SDS011;50512;53.666;9.700;2023-08-30T06:22:27;35.80;;;17.27;;
64197;SDS011;50512;53.666;9.700;2023-08-30T06:24:54;41.35;;;17.70;;
64197;SDS011;50512;53.666;9.700;2023-08-30T06:27:20;39.72;;;17.83;;
64197;SDS011;50512;53.666;9.700;2023-08-30T06:29:46;46.20;;;17.63;;
64197;SDS011;50512;53.666;9.700;2023-08-30T06:32:13;43.92;;;19.20;;
64197;SDS011;50512;53.666;9.700;2023-08-30T06:34:39;41.80;;;17.88;;
64197;SDS011;50512;53.666;9.700;2023-08-30T06:37:07;41.60;;;19.92;;
64197;SDS011;50512;53.666;9.700;2023-08-30T06:39:34;42.83;;;19.15;;
64197;SDS011;50512;53.666;9.700;2023-08-30T06:42:01;42.08;;;18.25;;
64197;SDS011;50512;53.666;9.700;2023-08-30T06:44:27;43.47;;;19.48;;
64197;SDS011;50512;53.666;9.700;2023-08-30T06:46:55;44.28;;;20.83;;
64197;SDS011;50512;53.666;9.700;2023-08-30T06:49:21;42.38;;;18.38;;
64197;SDS011;50512;53.666;9.700;2023-08-30T06:51:48;42.58;;;19.15;;
64197;SDS011;50512;53.666;9.700;2023-08-30T06:54:16;46.67;;;19.38;;
64197;SDS011;50512;53.666;9.700;2023-08-30T06:56:45;46.55;;;21.08;;
64197;SDS011;50512;53.666;9.700;2023-08-30T06:59:23;49.25;;;21.00;;
64197;SDS011;50512;53.666;9.700;2023-08-30T07:01:49;44.42;;;20.52;;
64197;SDS011;50512;53.666;9.700;2023-08-30T07:04:15;44.05;;;19.88;;
64197;SDS011;50512;53.666;9.700;2023-08-30T07:06:42;46.38;;;20.50;;
64197;SDS011;50512;53.666;9.700;2023-08-30T07:09:08;55.35;;;20.17;;
64197;SDS011;50512;53.666;9.700;2023-08-30T07:11:37;44.60;;;19.00;;
64197;SDS011;50512;53.666;9.700;2023-08-30T07:14:04;43.53;;;19.98;;
64197;SDS011;50512;53.666;9.700;2023-08-30T07:16:31;45.65;;;20.75;;
64197;SDS011;50512;53.666;9.700;2023-08-30T07:18:57;46.15;;;20.35;;
64197;SDS011;50512;53.666;9.700;2023-08-30T07:21:24;43.35;;;20.58;;
64197;SDS011;50512;53.666;9.700;2023-08-30T07:23:50;38.97;;;18.27;;
64197;SDS011;50512;53.666;9.700;2023-08-30T07:26:17;46.28;;;20.55;;
64197;SDS011;50512;53.666;9.700;2023-08-30T07:28:45;47.67;;;21.17;;
64197;SDS011;50512;53.666;9.700;2023-08-30T07:31:11;45.85;;;20.33;;
64197;SDS011;50512;53.666;9.700;2023-08-30T07:33:40;42.95;;;20.13;;
64197;SDS011;50512;53.666;9.700;2023-08-30T07:36:07;43.75;;;19.92;;
64197;SDS011;50512;53.666;9.700;2023-08-30T07:38:34;47.08;;;20.83;;
64197;SDS011;50512;53.666;9.700;2023-08-30T07:41:01;43.28;;;20.17;;
64197;SDS011;50512;53.666;9.700;2023-08-30T07:43:27;40.45;;;20.30;;
64197;SDS011;50512;53.666;9.700;2023-08-30T07:45:55;42.28;;;19.75;;
64197;SDS011;50512;53.666;9.700;2023-08-30T07:48:22;42.53;;;19.40;;
64197;SDS011;50512;53.666;9.700;2023-08-30T07:50:48;41.50;;;19.55;;
64197;SDS011;50512;53.666;9.700;2023-08-30T07:53:15;43.47;;;19.05;;
64197;SDS011;50512;53.666;9.700;2023-08-30T07:55:41;43.33;;;19.25;;
64197;SDS011;50512;53.666;9.700;2023-08-30T07:58:08;45.70;;;19.27;;
64197;SDS011;50512;53.666;9.700;2023-08-30T08:00:35;49.22;;;21.13;;
64197;SDS011;50512;53.666;9.700;2023-08-30T08:03:03;40.55;;;18.70;;
64197;SDS011;50512;53.666;9.700;2023-08-30T08:05:30;39.60;;;19.27;;
64197;SDS011;50512;53.666;9.700;2023-08-30T08:07:58;39.35;;;20.30;;
64197;SDS011;50512;53.666;9.700;2023-08-30T08:10:26;38.75;;;17.95;;
64197;SDS011;50512;53.666;9.700;2023-08-30T08:12:52;43.80;;;19.65;;
64197;SDS011;50512;53.666;9.700;2023-08-30T08:15:19;39.67;;;17.90;;
64197;SDS011;50512;53.666;9.700;2023-08-30T08:17:45;37.67;;;17.20;;
64197;SDS011;50512;53.666;9.700;2023-08-30T08:20:13;34.42;;;16.85;;
64197;SDS011;50512;53.666;9.700;2023-08-30T08:22:40;40.72;;;18.08;;
64197;SDS011;50512;53.666;9.700;2023-08-30T08:25:06;38.70;;;18.98;;
64197;SDS011;50512;53.666;9.700;2023-08-30T08:27:35;41.75;;;16.63;;
64197;SDS011;50512;53.666;9.700;2023-08-30T08:30:01;32.53;;;15.73;;
64197;SDS011;50512;53.666;9.700;2023-08-30T08:32:28;36.08;;;16.35;;
64197;SDS011;50512;53.666;9.700;2023-08-30T08:34:55;32.05;;;15.38;;
64197;SDS011;50512;53.666;9.700;2023-08-30T08:37:23;31.33;;;15.45;;
64197;SDS011;50512;53.666;9.700;2023-08-30T08:39:49;34.28;;;16.42;;
64197;SDS011;50512;53.666;9.700;2023-08-30T08:42:17;36.10;;;14.82;;
64197;SDS011;50512;53.666;9.700;2023-08-30T08:44:44;34.15;;;15.20;;
64197;SDS011;50512;53.666;9.700;2023-08-30T08:47:12;32.08;;;14.25;;
64197;SDS011;50512;53.666;9.700;2023-08-30T08:49:39;36.55;;;15.43;;
64197;SDS011;50512;53.666;9.700;2023-08-30T08:52:06;35.50;;;15.75;;
64197;SDS011;50512;53.666;9.700;2023-08-30T08:54:35;34.00;;;15.35;;
64197;SDS011;50512;53.666;9.700;2023-08-30T08:57:03;33.00;;;13.23;;
64197;SDS011;50512;53.666;9.700;2023-08-30T08:59:31;29.77;;;13.52;;
64197;SDS011;50512;53.666;9.700;2023-08-30T09:01:57;32.15;;;13.00;;
64197;SDS011;50512;53.666;9.700;2023-08-30T09:04:25;26.73;;;12.27;;
64197;SDS011;50512;53.666;9.700;2023-08-30T09:06:52;29.58;;;13.38;;
64197;SDS011;50512;53.666;9.700;2023-08-30T09:09:18;26.20;;;13.50;;
64197;SDS011;50512;53.666;9.700;2023-08-30T09:11:46;29.08;;;14.65;;
64197;SDS011;50512;53.666;9.700;2023-08-30T09:14:13;27.92;;;12.50;;
64197;SDS011;50512;53.666;9.700;2023-08-30T09:16:39;29.58;;;13.68;;
64197;SDS011;50512;53.666;9.700;2023-08-30T09:19:06;28.25;;;12.15;;
64197;SDS011;50512;53.666;9.700;2023-08-30T09:21:32;26.88;;;12.00;;
64197;SDS011;50512;53.666;9.700;2023-08-30T09:23:59;24.15;;;11.85;;
64197;SDS011;50512;53.666;9.700;2023-08-30T09:26:28;23.90;;;10.82;;
64197;SDS011;50512;53.666;9.700;2023-08-30T09:29:01;31.83;;;12.85;;
64197;SDS011;50512;53.666;9.700;2023-08-30T09:31:32;22.88;;;11.38;;
64197;SDS011;50512;53.666;9.700;2023-08-30T09:33:59;28.20;;;12.13;;
64197;SDS011;50512;53.666;9.700;2023-08-30T09:36:26;25.08;;;12.65;;
64197;SDS011;50512;53.666;9.700;2023-08-30T09:38:58;22.85;;;12.68;;
64197;SDS011;50512;53.666;9.700;2023-08-30T09:41:25;26.85;;;13.18;;
64197;SDS011;50512;53.666;9.700;2023-08-30T09:43:51;21.73;;;10.55;;
64197;SDS011;50512;53.666;9.700;2023-08-30T09:46:19;24.83;;;12.75;;
64197;SDS011;50512;53.666;9.700;2023-08-30T09:48:46;26.52;;;12.75;;
64197;SDS011;50512;53.666;9.700;2023-08-30T09:51:12;23.77;;;11.23;;
64197;SDS011;50512;53.666;9.700;2023-08-30T09:53:42;31.67;;;12.68;;
64197;SDS011;50512;53.666;9.700;2023-08-30T09:56:11;26.52;;;12.48;;
64197;SDS011;50512;53.666;9.700;2023-08-30T09:58:39;28.10;;;13.45;;
64197;SDS011;50512;53.666;9.700;2023-08-30T10:01:07;27.02;;;13.02;;
64197;SDS011;50512;53.666;9.700;2023-08-30T10:03:36;28.20;;;13.70;;
64197;SDS011;50512;53.666;9.700;2023-08-30T10:06:02;24.30;;;13.30;;
64197;SDS011;50512;53.666;9.700;2023-08-30T10:08:30;29.05;;;12.90;;
64197;SDS011;50512;53.666;9.700;2023-08-30T10:11:01;22.73;;;11.82;;
64197;SDS011;50512;53.666;9.700;2023-08-30T10:13:29;22.70;;;11.52;;
64197;SDS011;50512;53.666;9.700;2023-08-30T10:15:57;26.48;;;12.68;;
64197;SDS011;50512;53.666;9.700;2023-08-30T10:18:27;23.33;;;10.98;;
64197;SDS011;50512;53.666;9.700;2023-08-30T10:20:57;27.63;;;11.77;;
64197;SDS011;50512;53.666;9.700;2023-08-30T10:23:25;24.17;;;11.48;;
64197;SDS011;50512;53.666;9.700;2023-08-30T10:25:53;26.38;;;12.98;;
64197;SDS011;50512;53.666;9.700;2023-08-30T10:28:20;28.58;;;12.82;;
64197;SDS011;50512;53.666;9.700;2023-08-30T10:30:49;20.33;;;9.60;;
64197;SDS011;50512;53.666;9.700;2023-08-30T10:33:16;24.58;;;10.45;;
64197;SDS011;50512;53.666;9.700;2023-08-30T10:35:47;19.00;;;10.43;;
64197;SDS011;50512;53.666;9.700;2023-08-30T10:38:25;20.48;;;9.27;;
64197;SDS011;50512;53.666;9.700;2023-08-30T10:40:53;20.17;;;9.50;;
64197;SDS011;50512;53.666;9.700;2023-08-30T10:43:27;19.98;;;9.55;;
64197;SDS011;50512;53.666;9.700;2023-08-30T10:46:01;17.42;;;8.98;;
64197;SDS011;50512;53.666;9.700;2023-08-30T10:48:35;19.80;;;10.48;;
64197;SDS011;50512;53.666;9.700;2023-08-30T10:51:01;20.45;;;10.60;;
64197;SDS011;50512;53.666;9.700;2023-08-30T10:53:30;26.50;;;11.40;;
64197;SDS011;50512;53.666;9.700;2023-08-30T10:56:07;19.02;;;10.60;;
64197;SDS011;50512;53.666;9.700;2023-08-30T10:58:41;24.05;;;9.80;;
64197;SDS011;50512;53.666;9.700;2023-08-30T11:01:09;21.13;;;10.52;;
64197;SDS011;50512;53.666;9.700;2023-08-30T11:03:38;22.63;;;9.90;;
64197;SDS011;50512;53.666;9.700;2023-08-30T11:06:04;26.48;;;12.07;;
64197;SDS011;50512;53.666;9.700;2023-08-30T11:08:32;22.83;;;11.57;;
64197;SDS011;50512;53.666;9.700;2023-08-30T11:11:01;22.75;;;11.48;;
64197;SDS011;50512;53.666;9.700;2023-08-30T11:13:29;21.60;;;11.50;;
64197;SDS011;50512;53.666;9.700;2023-08-30T11:15:59;25.42;;;11.57;;
64197;SDS011;50512;53.666;9.700;2023-08-30T11:18:26;21.50;;;10.98;;
64197;SDS011;50512;53.666;9.700;2023-08-30T11:20:53;26.05;;;12.02;;
64197;SDS011;50512;53.666;9.700;2023-08-30T11:23:23;25.27;;;12.07;;
64197;SDS011;50512;53.666;9.700;2023-08-30T11:25:51;22.02;;;11.25;;
64197;SDS011;50512;53.666;9.700;2023-08-30T11:28:21;26.42;;;12.38;;
64197;SDS011;50512;53.666;9.700;2023-08-30T11:30:48;21.08;;;11.02;;
64197;SDS011;50512;53.666;9.700;2023-08-30T11:33:16;21.08;;;12.05;;
64197;SDS011;50512;53.666;9.700;2023-08-30T11:35:43;21.02;;;10.27;;
64197;SDS011;50512;53.666;9.700;2023-08-30T11:38:09;28.02;;;11.40;;
64197;SDS011;50512;53.666;9.700;2023-08-30T11:40:36;24.45;;;11.40;;
64197;SDS011;50512;53.666;9.700;2023-08-30T11:43:04;26.38;;;12.25;;
64197;SDS011;50512;53.666;9.700;2023-08-30T11:45:31;25.50;;;11.95;;
64197;SDS011;50512;53.666;9.700;2023-08-30T11:47:58;26.63;;;11.57;;
64197;SDS011;50512;53.666;9.700;2023-08-30T11:50:25;25.98;;;12.10;;
64197;SDS011;50512;53.666;9.700;2023-08-30T11:52:52;23.83;;;11.77;;
64197;SDS011;50512;53.666;9.700;2023-08-30T11:55:19;22.92;;;11.48;;
64197;SDS011;50512;53.666;9.700;2023-08-30T11:57:48;23.50;;;11.63;;
64197;SDS011;50512;53.666;9.700;2023-08-30T12:00:18;26.30;;;11.65;;
64197;SDS011;50512;53.666;9.700;2023-08-30T12:02:46;28.35;;;12.63;;
64197;SDS011;50512;53.666;9.700;2023-08-30T12:05:13;26.90;;;14.02;;
64197;SDS011;50512;53.666;9.700;2023-08-30T12:07:40;24.67;;;12.80;;
64197;SDS011;50512;53.666;9.700;2023-08-30T12:10:07;24.88;;;13.15;;
64197;SDS011;50512;53.666;9.700;2023-08-30T12:12:34;22.52;;;11.45;;
64197;SDS011;50512;53.666;9.700;2023-08-30T12:15:01;29.60;;;13.48;;
64197;SDS011;50512;53.666;9.700;2023-08-30T12:17:35;29.15;;;13.82;;
64197;SDS011;50512;53.666;9.700;2023-08-30T12:20:02;29.20;;;14.10;;
64197;SDS011;50512;53.666;9.700;2023-08-30T12:22:38;23.92;;;11.70;;
64197;SDS011;50512;53.666;9.700;2023-08-30T12:25:15;23.50;;;12.95;;
64197;SDS011;50512;53.666;9.700;2023-08-30T12:27:41;24.10;;;12.63;;
64197;SDS011;50512;53.666;9.700;2023-08-30T12:30:08;29.95;;;13.05;;
64197;SDS011;50512;53.666;9.700;2023-08-30T12:32:36;22.35;;;11.90;;
64197;SDS011;50512;53.666;9.700;2023-08-30T12:35:03;24.48;;;11.82;;
64197;SDS011;50512;53.666;9.700;2023-08-30T12:37:30;25.33;;;13.57;;
64197;SDS011;50512;53.666;9.700;2023-08-30T12:39:56;25.88;;;13.13;;
64197;SDS011;50512;53.666;9.700;2023-08-30T12:42:23;28.13;;;13.77;;
64197;SDS011;50512;53.666;9.700;2023-08-30T12:44:49;28.75;;;13.98;;
64197;SDS011;50512;53.666;9.700;2023-08-30T12:47:16;23.73;;;12.77;;
64197;SDS011;50512;53.666;9.700;2023-08-30T12:49:43;23.38;;;13.30;;
64197;SDS011;50512;53.666;9.700;2023-08-30T12:52:10;27.20;;;13.90;;
64197;SDS011;50512;53.666;9.700;2023-08-30T12:54:36;31.00;;;14.80;;
64197;SDS011;50512;53.666;9.700;2023-08-30T12:57:03;23.95;;;13.65;;
64197;SDS011;50512;53.666;9.700;2023-08-30T12:59:30;20.95;;;9.90;;
64197;SDS011;50512;53.666;9.700;2023-08-30T13:01:56;21.17;;;9.75;;
64197;SDS011;50512;53.666;9.700;2023-08-30T13:04:22;21.75;;;11.07;;
64197;SDS011;50512;53.666;9.700;2023-08-30T13:06:50;26.33;;;11.57;;
64197;SDS011;50512;53.666;9.700;2023-08-30T13:09:17;21.15;;;10.02;;
64197;SDS011;50512;53.666;9.700;2023-08-30T13:11:43;23.25;;;10.95;;
64197;SDS011;50512;53.666;9.700;2023-08-30T13:14:10;23.33;;;11.30;;
64197;SDS011;50512;53.666;9.700;2023-08-30T13:16:36;20.88;;;10.55;;
64197;SDS011;50512;53.666;9.700;2023-08-30T13:19:02;19.42;;;8.93;;
64197;SDS011;50512;53.666;9.700;2023-08-30T13:21:29;18.67;;;9.63;;
64197;SDS011;50512;53.666;9.700;2023-08-30T13:23:57;19.73;;;10.20;;
64197;SDS011;50512;53.666;9.700;2023-08-30T13:26:24;19.52;;;10.52;;
64197;SDS011;50512;53.666;9.700;2023-08-30T13:28:50;18.20;;;10.45;;
64197;SDS011;50512;53.666;9.700;2023-08-30T13:31:18;18.92;;;9.75;;
64197;SDS011;50512;53.666;9.700;2023-08-30T13:33:44;18.30;;;9.32;;
64197;SDS011;50512;53.666;9.700;2023-08-30T13:36:11;19.65;;;10.02;;
64197;SDS011;50512;53.666;9.700;2023-08-30T13:38:37;20.88;;;9.57;;
64197;SDS011;50512;53.666;9.700;2023-08-30T13:41:05;19.05;;;9.77;;
64197;SDS011;50512;53.666;9.700;2023-08-30T13:43:32;16.63;;;9.00;;
64197;SDS011;50512;53.666;9.700;2023-08-30T13:45:59;18.55;;;9.77;;
64197;SDS011;50512;53.666;9.700;2023-08-30T13:48:26;17.27;;;9.40;;
64197;SDS011;50512;53.666;9.700;2023-08-30T13:50:52;18.92;;;10.07;;
64197;SDS011;50512;53.666;9.700;2023-08-30T13:53:19;17.65;;;9.57;;
64197;SDS011;50512;53.666;9.700;2023-08-30T13:55:45;17.60;;;9.32;;
64197;SDS011;50512;53.666;9.700;2023-08-30T13:58:14;16.92;;;9.02;;
64197;SDS011;50512;53.666;9.700;2023-08-30T14:00:41;17.83;;;8.93;;
64197;SDS011;50512;53.666;9.700;2023-08-30T14:03:08;20.88;;;9.05;;
64197;SDS011;50512;53.666;9.700;2023-08-30T14:05:34;16.77;;;8.85;;
64197;SDS011;50512;53.666;9.700;2023-08-30T14:08:01;17.42;;;9.45;;
64197;SDS011;50512;53.666;9.700;2023-08-30T14:10:27;16.73;;;9.23;;
64197;SDS011;50512;53.666;9.700;2023-08-30T14:12:54;15.13;;;9.00;;
64197;SDS011;50512;53.666;9.700;2023-08-30T14:15:21;18.92;;;9.15;;
64197;SDS011;50512;53.666;9.700;2023-08-30T14:17:48;17.15;;;10.43;;
64197;SDS011;50512;53.666;9.700;2023-08-30T14:20:14;20.08;;;9.55;;
64197;SDS011;50512;53.666;9.700;2023-08-30T14:22:41;14.00;;;8.43;;
64197;SDS011;50512;53.666;9.700;2023-08-30T14:25:08;21.48;;;9.50;;
64197;SDS011;50512;53.666;9.700;2023-08-30T14:27:35;14.13;;;9.00;;